Time;durP1;ratioP1;P1;durP2;ratioP2;P2;SDS_P1;SDS_P2;PMS_P1;PMS_P2;Temp;Humidity;BMP_temperature;BMP_pressure;BME280_temperature;BME280_humidity;BME280_pressure;Samples;Min_cycle;Max_cycle;Signal;HPM_P1;HPM_P2
2023/05/13 00:00:06;;;;;;;6.40;4.47;;;;;;;14.36;47.50;101353.19;7396433;19;20014;-70
2023/05/13 00:02:37;;;;;;;7.03;4.50;;;;;;;14.30;47.62;101356.84;7395392;19;20091;-69
2023/05/13 00:05:07;;;;;;;7.47;4.45;;;;;;;14.26;47.76;101360.50;7395768;19;20039;-69
2023/05/13 00:07:35;;;;;;;8.45;4.43;;;;;;;14.18;47.91;101356.28;7395130;19;20018;-69
2023/05/13 00:10:04;;;;;;;6.25;4.60;;;;;;;14.14;48.09;101359.91;7394733;19;20027;-69
2023/05/13 00:12:32;;;;;;;6.88;4.18;;;;;;;14.08;48.37;101352.16;7396068;19;20018;-71
2023/05/13 00:15:01;;;;;;;6.32;4.85;;;;;;;14.03;48.28;101351.41;7395795;19;20026;-69
2023/05/13 00:17:29;;;;;;;7.85;4.80;;;;;;;13.97;48.67;101352.44;7394464;19;20006;-70
2023/05/13 00:20:00;;;;;;;5.57;4.20;;;;;;;13.94;48.79;101349.00;7394789;19;20022;-72
2023/05/13 00:22:29;;;;;;;8.25;4.78;;;;;;;13.89;48.94;101350.88;7395182;19;20083;-70
2023/05/13 00:24:57;;;;;;;8.93;4.15;;;;;;;13.82;49.34;101356.31;7394446;19;20014;-68
2023/05/13 00:27:26;;;;;;;8.30;4.70;;;;;;;13.77;49.20;101363.47;7394321;19;20086;-69
2023/05/13 00:29:54;;;;;;;6.72;4.55;;;;;;;13.72;49.31;101361.88;7394132;19;20023;-69
2023/05/13 00:32:23;;;;;;;7.75;4.72;;;;;;;13.67;49.59;101354.97;7393744;19;20347;-68
2023/05/13 00:34:51;;;;;;;7.82;4.47;;;;;;;13.64;49.69;101356.81;7393869;19;20085;-69
2023/05/13 00:37:22;;;;;;;11.32;5.18;;;;;;;13.58;49.84;101357.81;7393734;19;20501;-69
2023/05/13 00:39:51;;;;;;;7.30;4.95;;;;;;;13.54;49.94;101365.84;7394412;19;20550;-70
2023/05/13 00:42:19;;;;;;;5.32;4.68;;;;;;;13.50;50.01;101365.06;7395779;19;20032;-70
2023/05/13 00:44:48;;;;;;;9.65;4.82;;;;;;;13.45;50.34;101362.50;7393432;19;20419;-69
2023/05/13 00:47:18;;;;;;;6.35;4.90;;;;;;;13.41;50.66;101367.88;7393024;19;20545;-70
2023/05/13 00:49:46;;;;;;;7.05;4.20;;;;;;;13.35;50.52;101372.38;7393489;19;20486;-70
2023/05/13 00:52:15;;;;;;;6.43;4.38;;;;;;;13.32;50.82;101368.94;7395583;19;20145;-69
2023/05/13 00:54:46;;;;;;;7.82;4.53;;;;;;;13.26;51.12;101372.59;7393825;19;20036;-69
2023/05/13 00:57:15;;;;;;;6.97;4.72;;;;;;;13.22;51.03;101368.31;7393933;19;20031;-69
2023/05/13 00:59:43;;;;;;;8.88;4.32;;;;;;;13.17;51.05;101367.53;7396621;19;20039;-70
2023/05/13 01:02:18;;;;;;;5.28;4.45;;;;;;;13.12;51.35;101365.00;7399904;19;20018;-71
2023/05/13 01:04:52;;;;;;;7.15;4.70;;;;;;;13.08;51.47;101371.25;7400278;19;20407;-70
2023/05/13 01:07:24;;;;;;;;;;;;;;;13.04;51.16;101375.72;7408585;19;20347;-70
2023/05/13 01:10:02;;;;;;;8.05;5.30;;;;;;;13.00;51.54;101374.06;7411637;19;19918;-69
2023/05/13 01:12:34;;;;;;;9.07;4.78;;;;;;;12.95;51.53;101375.03;7411119;19;20049;-71
2023/05/13 01:15:07;;;;;;;7.03;5.40;;;;;;;12.92;51.96;101378.59;7411209;19;20360;-70
2023/05/13 01:17:42;;;;;;;12.68;5.40;;;;;;;12.85;51.93;101375.25;7404852;19;20424;-70
2023/05/13 01:20:12;;;;;;;12.30;5.18;;;;;;;12.84;52.26;101373.50;7404059;19;20043;-70
2023/05/13 01:22:43;;;;;;;11.90;5.70;;;;;;;12.80;52.45;101385.00;7401971;19;20074;-70
2023/05/13 01:25:12;;;;;;;9.85;6.00;;;;;;;12.79;52.54;101387.66;7399670;19;20015;-70
2023/05/13 01:27:41;;;;;;;10.05;6.25;;;;;;;12.77;52.69;101384.19;7399717;19;20380;-73
2023/05/13 01:30:11;;;;;;;9.57;5.32;;;;;;;12.76;52.67;101387.72;7399517;19;20494;-69
2023/05/13 01:32:40;;;;;;;6.43;5.35;;;;;;;12.73;52.71;101388.66;7402285;19;20046;-70
2023/05/13 01:35:11;;;;;;;6.07;5.47;;;;;;;12.71;52.82;101385.19;7399015;19;20436;-70
2023/05/13 01:37:40;;;;;;;10.55;4.80;;;;;;;12.70;52.66;101386.97;7402005;19;20490;-69
2023/05/13 01:40:13;;;;;;;7.72;5.05;;;;;;;12.70;52.89;101383.44;7399178;19;20078;-70
2023/05/13 01:42:42;;;;;;;5.35;4.32;;;;;;;12.68;53.00;101385.25;7401094;19;20011;-72
2023/05/13 01:45:11;;;;;;;7.38;5.30;;;;;;;12.67;52.97;101394.03;7399019;19;20042;-70
2023/05/13 01:47:40;;;;;;;7.20;4.45;;;;;;;12.64;53.06;101391.50;7398563;19;20087;-70
2023/05/13 01:50:09;;;;;;;9.15;5.28;;;;;;;12.60;53.36;101393.31;7401509;19;20031;-69
2023/05/13 01:52:38;;;;;;;6.15;5.05;;;;;;;12.57;53.28;101398.63;7398605;19;20022;-70
2023/05/13 01:55:07;;;;;;;11.32;5.50;;;;;;;12.54;53.47;101402.19;7399086;19;20032;-70
2023/05/13 01:57:38;;;;;;;8.60;5.57;;;;;;;12.52;53.72;101400.47;7401507;19;20019;-70
2023/05/13 02:00:08;;;;;;;11.98;5.72;;;;;;;12.49;53.69;101393.50;7398795;19;20022;-70
2023/05/13 02:02:37;;;;;;;8.88;4.82;;;;;;;12.47;53.68;101402.34;7398080;19;20477;-70
2023/05/13 02:05:06;;;;;;;9.45;5.65;;;;;;;12.45;53.79;101405.00;7401044;19;20084;-70
2023/05/13 02:07:35;;;;;;;8.85;5.32;;;;;;;12.42;53.83;101398.91;7398446;19;20022;-70
2023/05/13 02:10:05;;;;;;;9.55;5.25;;;;;;;12.39;53.89;101398.06;7397670;19;20018;-70
2023/05/13 02:12:33;;;;;;;7.72;5.03;;;;;;;12.36;53.92;101394.66;7400982;19;20029;-70
2023/05/13 02:15:04;;;;;;;8.90;5.13;;;;;;;12.35;54.09;101396.41;7399959;19;20493;-69
2023/05/13 02:17:33;;;;;;;7.90;6.03;;;;;;;12.33;54.02;101400.84;7399044;19;20028;-70
2023/05/13 02:20:01;;;;;;;8.98;6.85;;;;;;;12.27;54.33;101394.81;7399325;19;20027;-70
2023/05/13 02:22:30;;;;;;;7.63;6.25;;;;;;;12.26;54.33;101403.59;7397987;19;20023;-70
2023/05/13 02:24:58;;;;;;;10.05;5.65;;;;;;;12.21;54.59;101401.91;7397499;19;20014;-70
2023/05/13 02:27:26;;;;;;;9.40;6.22;;;;;;;12.17;54.65;101405.50;7398773;19;20032;-70
2023/05/13 02:29:55;;;;;;;7.30;5.38;;;;;;;12.13;54.77;101403.84;7398057;19;20104;-70
2023/05/13 02:32:26;;;;;;;5.85;5.15;;;;;;;12.11;54.84;101404.75;7397476;19;20015;-70
2023/05/13 02:34:54;;;;;;;6.65;4.55;;;;;;;12.08;54.90;101405.69;7397483;19;20031;-71
2023/05/13 02:37:23;;;;;;;9.75;5.15;;;;;;;12.05;55.12;101410.97;7397631;19;20011;-71
2023/05/13 02:39:52;;;;;;;5.65;5.10;;;;;;;12.02;55.04;101405.78;7399544;19;20362;-70
2023/05/13 02:42:20;;;;;;;8.10;4.95;;;;;;;12.02;55.24;101403.16;7397461;19;20496;-71
2023/05/13 02:44:49;;;;;;;6.85;4.82;;;;;;;12.00;55.12;101402.31;7397174;19;20090;-71
2023/05/13 02:47:17;;;;;;;6.70;4.88;;;;;;;11.98;55.14;101404.06;7397648;19;20015;-70
2023/05/13 02:49:48;;;;;;;7.65;5.75;;;;;;;11.96;55.33;101412.00;7397554;19;20014;-71
2023/05/13 02:52:17;;;;;;;6.80;5.07;;;;;;;11.93;55.22;101405.88;7397373;19;20011;-70
2023/05/13 02:54:45;;;;;;;10.15;5.70;;;;;;;11.93;55.34;101403.25;7397197;19;20018;-71
2023/05/13 02:57:14;;;;;;;9.32;5.60;;;;;;;11.89;55.47;101412.94;7399224;19;20031;-70
2023/05/13 02:59:42;;;;;;;6.07;5.22;;;;;;;11.86;55.39;101411.25;7398975;19;20407;-68
2023/05/13 03:02:11;;;;;;;6.00;5.20;;;;;;;11.83;55.58;101406.03;7402194;19;20022;-68
2023/05/13 03:04:40;;;;;;;7.38;5.45;;;;;;;11.83;55.54;101408.69;7400459;19;20018;-67
2023/05/13 03:07:11;;;;;;;5.90;5.30;;;;;;;11.83;55.49;101405.19;7399450;19;20087;-66
2023/05/13 03:09:41;;;;;;;7.07;5.88;;;;;;;11.80;55.52;101406.09;7398598;19;20509;-67
2023/05/13 03:12:10;;;;;;;7.47;5.65;;;;;;;11.80;55.60;101411.34;7400430;19;20033;-67
2023/05/13 03:14:39;;;;;;;9.32;5.47;;;;;;;11.78;55.61;101413.16;7397973;19;20049;-67
2023/05/13 03:17:07;;;;;;;7.22;5.85;;;;;;;11.76;55.67;101417.53;7397883;19;20021;-66
2023/05/13 03:19:37;;;;;;;6.80;5.57;;;;;;;11.74;55.67;101421.97;7399192;19;20019;-66
2023/05/13 03:22:06;;;;;;;6.88;5.18;;;;;;;11.71;55.74;101415.00;7397047;19;20018;-66
2023/05/13 03:24:37;;;;;;;6.70;5.22;;;;;;;11.70;55.76;101415.91;7397201;19;20018;-66
2023/05/13 03:27:05;;;;;;;13.02;6.13;;;;;;;11.67;55.71;101423.81;7399264;19;20550;-66
2023/05/13 03:29:34;;;;;;;8.02;5.50;;;;;;;11.65;56.11;101427.34;7397359;19;20490;-65
2023/05/13 03:32:03;;;;;;;7.72;5.82;;;;;;;11.62;55.85;101420.38;7397229;19;20014;-68
2023/05/13 03:34:32;;;;;;;9.48;5.65;;;;;;;11.61;56.04;101423.91;7395841;19;20022;-68
2023/05/13 03:37:00;;;;;;;9.15;5.60;;;;;;;11.59;56.09;101428.34;7395337;19;20486;-68
2023/05/13 03:39:29;;;;;;;7.13;5.78;;;;;;;11.58;56.12;101432.69;7397252;19;20039;-68
2023/05/13 03:42:00;;;;;;;9.00;6.00;;;;;;;11.58;56.18;101429.22;7397401;19;20047;-68
2023/05/13 03:44:28;;;;;;;6.97;5.65;;;;;;;11.57;56.24;101431.00;7395320;19;20019;-68
2023/05/13 03:46:57;;;;;;;7.72;5.97;;;;;;;11.55;56.34;101438.03;7395336;19;20014;-68
2023/05/13 03:49:25;;;;;;;10.63;6.15;;;;;;;11.57;56.30;101435.38;7394926;19;20517;-68
2023/05/13 03:51:54;;;;;;;7.82;5.25;;;;;;;11.58;56.40;101435.34;7395476;19;20022;-68
2023/05/13 03:54:22;;;;;;;9.10;5.97;;;;;;;11.57;56.42;101436.25;7394933;19;20007;-69
2023/05/13 03:56:51;;;;;;;11.68;5.70;;;;;;;11.57;56.41;101436.25;7395448;19;20031;-69
2023/05/13 03:59:22;;;;;;;9.18;5.55;;;;;;;11.57;56.46;101445.88;7395387;19;20018;-69
2023/05/13 04:01:51;;;;;;;15.15;9.25;;;;;;;11.57;56.38;101445.88;7395869;19;20074;-69
2023/05/13 04:04:26;;;;;;;19.17;12.52;;;;;;;11.57;56.54;101441.50;7395802;19;20396;-69
2023/05/13 04:06:54;;;;;;;23.90;15.05;;;;;;;11.59;56.61;101446.72;7396000;19;20028;-69
2023/05/13 04:09:23;;;;;;;10.05;6.40;;;;;;;11.59;56.65;101449.38;7394783;19;20085;-69
2023/05/13 04:11:51;;;;;;;11.27;7.20;;;;;;;11.60;56.52;101447.59;7394837;19;20027;-69
2023/05/13 04:14:22;;;;;;;7.93;5.88;;;;;;;11.60;56.59;101453.72;7394355;19;20014;-69
2023/05/13 04:16:51;;;;;;;8.23;6.00;;;;;;;11.58;56.52;101453.72;7394452;19;20426;-69
2023/05/13 04:19:19;;;;;;;7.40;5.53;;;;;;;11.57;56.60;101459.91;7394531;19;20027;-69
2023/05/13 04:21:47;;;;;;;11.43;6.57;;;;;;;11.56;56.52;101452.91;7394689;19;20033;-69
2023/05/13 04:24:16;;;;;;;13.63;6.68;;;;;;;11.56;56.39;101455.53;7394893;19;20036;-69
2023/05/13 04:26:45;;;;;;;9.68;6.75;;;;;;;11.57;56.54;101452.03;7394794;19;20014;-69
2023/05/13 04:29:16;;;;;;;7.18;6.28;;;;;;;11.56;56.59;101460.78;7394582;19;20032;-69
2023/05/13 04:31:47;;;;;;;8.73;6.15;;;;;;;11.58;56.37;101460.75;7395446;19;20007;-69
2023/05/13 04:34:15;;;;;;;9.05;5.90;;;;;;;11.58;56.45;101463.38;7393051;19;20015;-69
2023/05/13 04:36:50;;;;;;;6.90;6.13;;;;;;;11.60;56.56;101473.88;7396258;19;20027;-68
2023/05/13 04:39:19;;;;;;;11.38;6.78;;;;;;;11.62;56.37;101474.72;7394205;19;20039;-69
2023/05/13 04:41:47;;;;;;;9.00;6.38;;;;;;;11.63;56.35;101477.31;7393756;19;20010;-69
2023/05/13 04:44:16;;;;;;;8.45;5.70;;;;;;;11.65;56.39;101474.66;7394102;19;20014;-69
2023/05/13 04:46:47;;;;;;;9.15;6.38;;;;;;;11.66;56.54;101482.53;7394029;19;20035;-68
2023/05/13 04:49:15;;;;;;;8.52;5.78;;;;;;;11.70;56.38;101483.34;7395612;19;20022;-69
2023/05/13 04:51:44;;;;;;;9.20;6.45;;;;;;;11.72;56.43;101476.31;7394162;19;20018;-70
2023/05/13 04:54:12;;;;;;;10.65;6.72;;;;;;;11.75;56.31;101481.53;7394375;19;20462;-68
2023/05/13 04:56:40;;;;;;;8.55;6.40;;;;;;;11.78;56.26;101484.13;7394046;19;20041;-69
2023/05/13 04:59:10;;;;;;;10.48;6.93;;;;;;;11.82;56.07;101488.44;7393914;19;20019;-69
2023/05/13 05:01:38;;;;;;;11.93;6.35;;;;;;;11.79;56.01;101483.25;7394755;19;20019;-70
2023/05/13 05:04:10;;;;;;;15.77;6.78;;;;;;;11.87;56.00;101483.97;7394953;19;20027;-69
2023/05/13 05:06:38;;;;;;;11.38;6.97;;;;;;;11.91;56.02;101487.44;7395092;19;20031;-70
2023/05/13 05:09:07;;;;;;;9.13;7.05;;;;;;;11.92;55.73;101486.53;7393381;19;20506;-70
2023/05/13 05:11:35;;;;;;;10.82;7.88;;;;;;;11.98;55.87;101498.75;7393759;19;20028;-70
2023/05/13 05:14:03;;;;;;;9.65;6.45;;;;;;;12.02;55.63;101503.94;7393541;19;20018;-71
2023/05/13 05:16:32;;;;;;;8.63;7.07;;;;;;;12.06;55.63;101499.50;7392928;19;20026;-68
2023/05/13 05:19:00;;;;;;;10.27;5.93;;;;;;;12.10;55.37;101503.81;7392039;19;20070;-68
2023/05/13 05:21:32;;;;;;;10.10;6.15;;;;;;;12.15;55.31;101506.38;7392599;19;20031;-68
2023/05/13 05:24:00;;;;;;;9.52;6.75;;;;;;;12.20;55.22;101509.81;7392700;19;20022;-68
2023/05/13 05:26:29;;;;;;;8.50;6.40;;;;;;;12.25;55.10;101504.47;7393003;19;20038;-68
2023/05/13 05:28:57;;;;;;;9.70;6.13;;;;;;;12.30;55.02;101503.50;7392434;19;20363;-70
2023/05/13 05:31:26;;;;;;;9.55;6.57;;;;;;;12.35;54.79;101504.28;7391840;19;20158;-69
2023/05/13 05:33:55;;;;;;;8.05;6.28;;;;;;;12.42;54.81;101509.44;7392203;19;20018;-70
2023/05/13 05:36:23;;;;;;;10.38;6.45;;;;;;;12.49;54.73;101513.72;7392235;19;20019;-70
2023/05/13 05:38:55;;;;;;;11.10;6.90;;;;;;;12.54;54.54;101504.84;7392105;19;20022;-70
2023/05/13 05:41:23;;;;;;;8.95;6.07;;;;;;;12.61;54.29;101507.34;7391850;19;20393;-70
2023/05/13 05:43:52;;;;;;;12.95;6.22;;;;;;;12.66;54.08;101513.41;7391847;19;20014;-70
2023/05/13 05:46:21;;;;;;;6.97;5.95;;;;;;;12.72;54.15;101513.28;7394110;19;20027;-70
2023/05/13 05:48:50;;;;;;;11.77;8.02;;;;;;;12.78;53.99;101513.19;7399936;19;20482;-70
2023/05/13 05:51:18;;;;;;;10.90;6.63;;;;;;;12.85;53.87;101524.47;7399649;19;20019;-72
2023/05/13 05:53:51;;;;;;;10.52;5.78;;;;;;;12.92;53.66;101520.81;7399486;19;20018;-72
2023/05/13 05:56:22;;;;;;;9.23;6.18;;;;;;;13.00;53.35;101515.41;7399511;19;20007;-70
2023/05/13 05:58:50;;;;;;;13.57;5.82;;;;;;;13.06;53.38;101519.69;7398696;19;20485;-70
2023/05/13 06:01:19;;;;;;;9.77;5.65;;;;;;;13.12;53.10;101517.81;7398667;19;20612;-69
2023/05/13 06:03:47;;;;;;;8.23;5.10;;;;;;;13.20;52.92;101515.91;7398958;19;20482;-70
2023/05/13 06:06:16;;;;;;;7.20;4.88;;;;;;;13.26;52.67;101522.78;7401059;19;20018;-69
2023/05/13 06:08:44;;;;;;;6.95;5.35;;;;;;;13.34;52.39;101517.34;7397899;19;20382;-70
2023/05/13 06:11:13;;;;;;;8.68;5.07;;;;;;;13.41;52.20;101524.28;7400677;19;20015;-69
2023/05/13 06:13:44;;;;;;;6.65;4.85;;;;;;;13.48;51.92;101515.34;7398053;19;20351;-70
2023/05/13 06:16:12;;;;;;;6.05;4.93;;;;;;;13.55;51.68;101515.19;7398069;19;20485;-70
2023/05/13 06:18:41;;;;;;;7.03;5.10;;;;;;;13.64;51.20;101515.00;7398843;19;20010;-71
2023/05/13 06:21:10;;;;;;;10.32;5.50;;;;;;;13.70;50.75;101509.59;7398617;19;20034;-71
2023/05/13 06:23:39;;;;;;;9.07;5.10;;;;;;;13.79;50.60;101512.00;7400767;19;20018;-69
2023/05/13 06:26:08;;;;;;;11.57;5.60;;;;;;;13.88;50.37;101502.16;7398831;19;20018;-69
2023/05/13 06:28:36;;;;;;;7.85;5.50;;;;;;;13.95;50.41;101507.25;7398729;19;20035;-69
2023/05/13 06:31:07;;;;;;;6.93;5.70;;;;;;;14.01;50.21;101498.31;7398703;19;20022;-69
2023/05/13 06:33:36;;;;;;;9.30;5.22;;;;;;;14.08;49.90;101507.81;7398482;19;20352;-71
2023/05/13 06:36:04;;;;;;;7.68;5.20;;;;;;;14.14;49.76;101510.31;7398167;19;20033;-70
2023/05/13 06:38:33;;;;;;;10.52;4.88;;;;;;;14.22;49.10;101501.34;7400473;19;20022;-70
2023/05/13 06:41:02;;;;;;;6.60;4.53;;;;;;;14.29;48.99;101505.56;7398102;19;20489;-70
2023/05/13 06:43:30;;;;;;;5.65;4.97;;;;;;;14.35;48.98;101510.69;7397749;19;20014;-69
2023/05/13 06:45:59;;;;;;;8.52;4.18;;;;;;;14.43;48.93;101502.56;7398006;19;20015;-70
2023/05/13 06:48:31;;;;;;;6.32;4.35;;;;;;;14.50;48.78;101502.34;7398432;19;20046;-70
2023/05/13 06:51:00;;;;;;;6.20;4.78;;;;;;;14.59;48.50;101503.03;7401123;19;20015;-70
2023/05/13 06:53:28;;;;;;;6.53;4.18;;;;;;;14.64;48.17;101502.03;7397791;19;20019;-71
2023/05/13 06:55:56;;;;;;;12.63;4.47;;;;;;;14.73;47.91;101503.56;7397583;19;20082;-69
2023/05/13 06:58:25;;;;;;;8.73;4.03;;;;;;;14.81;47.41;101501.59;7395735;19;20482;-69
2023/05/13 07:00:54;;;;;;;6.82;4.18;;;;;;;14.89;46.83;101498.72;7397681;19;20398;-69
2023/05/13 07:03:22;;;;;;;8.68;4.38;;;;;;;14.94;46.43;101488.91;7396010;19;20405;-69
2023/05/13 07:05:54;;;;;;;7.90;4.30;;;;;;;15.02;46.22;101493.13;7395572;19;20485;-69
2023/05/13 07:08:22;;;;;;;6.72;4.65;;;;;;;15.07;46.29;101484.13;7396644;19;20015;-69
2023/05/13 07:10:51;;;;;;;11.15;7.40;;;;;;;15.18;45.89;101490.88;7396281;19;20022;-69
2023/05/13 07:13:20;;;;;;;16.83;6.07;;;;;;;15.25;45.34;101489.78;7395517;19;20081;-68
2023/05/13 07:15:49;;;;;;;8.63;4.10;;;;;;;15.33;45.24;101487.81;7396135;19;20027;-69
2023/05/13 07:18:17;;;;;;;6.75;5.00;;;;;;;15.40;44.91;101486.69;7395421;19;20008;-69
2023/05/13 07:20:46;;;;;;;7.68;3.92;;;;;;;15.50;44.74;101483.78;7397321;19;20019;-70
2023/05/13 07:23:17;;;;;;;8.88;4.00;;;;;;;15.57;44.57;101475.59;7395614;19;20018;-68
2023/05/13 07:25:46;;;;;;;5.85;4.13;;;;;;;15.67;44.12;101484.13;7395919;19;20456;-69
2023/05/13 07:28:14;;;;;;;9.73;4.40;;;;;;;15.74;43.80;101480.34;7398007;19;20011;-70
2023/05/13 07:30:43;;;;;;;9.20;3.65;;;;;;;15.85;43.17;101477.41;7395887;19;20501;-69
2023/05/13 07:33:11;;;;;;;6.40;3.72;;;;;;;15.94;42.95;101478.91;7396743;19;20018;-69
2023/05/13 07:35:40;;;;;;;6.85;3.70;;;;;;;16.04;42.16;101469.72;7396294;19;20028;-68
2023/05/13 07:38:11;;;;;;;6.05;3.38;;;;;;;16.14;41.53;101475.59;7396055;19;20018;-69
2023/05/13 07:40:43;;;;;;;5.70;3.30;;;;;;;16.15;41.85;101463.22;7395824;19;20069;-69
2023/05/13 07:43:12;;;;;;;6.38;3.45;;;;;;;16.32;41.29;101470.59;7395983;19;20518;-70
2023/05/13 07:45:41;;;;;;;7.15;3.38;;;;;;;16.43;40.91;101477.25;7395795;19;20014;-70
2023/05/13 07:48:09;;;;;;;6.70;4.00;;;;;;;16.54;40.52;101471.59;7395118;19;20011;-70
2023/05/13 07:50:38;;;;;;;6.35;3.63;;;;;;;16.63;40.12;101473.03;7395660;19;20007;-70
2023/05/13 07:53:06;;;;;;;6.65;3.70;;;;;;;16.70;39.71;101463.09;7396664;19;20031;-71
2023/05/13 07:55:35;;;;;;;8.85;3.90;;;;;;;16.81;39.96;101470.63;7396319;19;20554;-69
2023/05/13 07:58:06;;;;;;;6.97;3.53;;;;;;;16.82;39.87;101460.00;7396060;19;20022;-70
2023/05/13 08:00:35;;;;;;;8.60;3.38;;;;;;;16.87;39.65;101449.22;7395194;19;20018;-69
2023/05/13 08:03:03;;;;;;;10.30;3.92;;;;;;;17.04;39.89;101461.88;7395177;19;20010;-71
2023/05/13 08:05:32;;;;;;;5.43;3.85;;;;;;;17.13;39.23;101469.47;7395254;19;20019;-72
2023/05/13 08:08:01;;;;;;;5.18;3.80;;;;;;;17.25;39.25;101465.50;7396046;19;20031;-69
2023/05/13 08:10:30;;;;;;;6.35;3.60;;;;;;;17.33;39.65;101467.88;7393665;19;20010;-69
2023/05/13 08:12:59;;;;;;;7.63;4.68;;;;;;;17.40;39.46;101472.88;7395192;19;20018;-70
2023/05/13 08:15:31;;;;;;;7.20;3.85;;;;;;;17.46;39.53;101468.25;7397062;19;20018;-69
2023/05/13 08:17:59;;;;;;;6.90;3.83;;;;;;;17.53;38.78;101475.91;7397316;19;20018;-70
2023/05/13 08:20:28;;;;;;;4.78;3.13;;;;;;;17.61;38.40;101480.91;7395393;19;20019;-70
2023/05/13 08:22:58;;;;;;;6.43;3.67;;;;;;;17.67;38.23;101463.88;7395110;19;20399;-69
2023/05/13 08:25:26;;;;;;;6.22;3.63;;;;;;;17.71;37.46;101473.44;7395231;19;20014;-69
2023/05/13 08:27:55;;;;;;;5.00;3.40;;;;;;;17.79;36.80;101471.34;7395702;19;20031;-70
2023/05/13 08:30:24;;;;;;;7.47;4.00;;;;;;;17.83;36.96;101482.69;7393832;19;20518;-69
2023/05/13 08:32:55;;;;;;;6.80;3.63;;;;;;;17.87;36.70;101479.00;7393674;19;20014;-70
2023/05/13 08:35:24;;;;;;;7.15;3.58;;;;;;;17.92;36.62;101480.53;7393687;19;20022;-70
2023/05/13 08:37:53;;;;;;;5.40;3.85;;;;;;;17.97;36.86;101480.38;7397951;19;20054;-70
2023/05/13 08:40:22;;;;;;;4.50;3.28;;;;;;;18.02;36.49;101482.84;7396216;19;20485;-69
2023/05/13 08:42:55;;;;;;;5.57;3.10;;;;;;;18.08;36.49;101482.59;7394209;19;20010;-69
2023/05/13 08:45:26;;;;;;;4.82;2.92;;;;;;;18.08;36.37;101471.97;7395164;19;20023;-70
2023/05/13 08:47:58;;;;;;;9.07;3.40;;;;;;;18.16;36.12;101474.28;7394238;19;20014;-70
2023/05/13 08:50:27;;;;;;;5.38;3.20;;;;;;;18.21;36.61;101478.50;7394994;19;20423;-69
2023/05/13 08:52:56;;;;;;;4.75;3.10;;;;;;;18.24;36.34;101477.50;7392625;19;20082;-70
2023/05/13 08:55:25;;;;;;;4.00;2.83;;;;;;;18.29;36.16;101480.81;7392689;19;20027;-70
2023/05/13 08:57:54;;;;;;;8.00;3.58;;;;;;;18.33;35.95;101482.41;7395319;19;20021;-71
2023/05/13 09:00:23;;;;;;;4.93;3.17;;;;;;;18.32;36.20;101470.06;7395507;19;20427;-69
2023/05/13 09:02:52;;;;;;;7.10;3.40;;;;;;;18.46;36.04;101479.25;7394871;19;20364;-69
2023/05/13 09:05:23;;;;;;;10.15;3.47;;;;;;;18.50;36.11;101467.53;7393577;19;20226;-70
2023/05/13 09:07:52;;;;;;;6.65;3.25;;;;;;;18.56;36.09;101476.13;7392747;19;20391;-69
2023/05/13 09:10:22;;;;;;;5.15;3.10;;;;;;;18.61;36.02;101470.59;7392295;19;20022;-70
2023/05/13 09:12:51;;;;;;;5.68;3.70;;;;;;;18.65;35.00;101466.00;7392792;19;20029;-69
2023/05/13 09:15:22;;;;;;;5.35;3.35;;;;;;;18.70;35.58;101464.88;7394275;19;20383;-69
2023/05/13 09:17:53;;;;;;;15.07;4.60;;;;;;;18.76;35.30;101466.41;7392604;19;20018;-70
2023/05/13 09:20:32;;;;;;;5.60;3.38;;;;;;;18.80;35.01;101470.63;7395210;19;20506;-69
2023/05/13 09:23:03;;;;;;;7.22;3.47;;;;;;;18.86;34.64;101469.50;7399620;19;20035;-69
2023/05/13 09:25:32;;;;;;;6.97;3.40;;;;;;;18.82;34.75;101454.63;7406767;19;20027;-69
2023/05/13 09:28:03;;;;;;;4.70;2.95;;;;;;;18.92;34.42;101463.94;7403575;19;20056;-66
2023/05/13 09:30:34;;;;;;;9.10;3.25;;;;;;;18.92;34.64;101441.81;7406898;19;20031;-67
2023/05/13 09:33:08;;;;;;;6.07;3.22;;;;;;;19.08;33.97;101456.13;7407801;19;20023;-67
2023/05/13 09:35:42;;;;;;;5.45;2.83;;;;;;;19.15;33.76;101456.72;7402835;19;20488;-68
2023/05/13 09:38:18;;;;;;;6.03;2.70;;;;;;;19.27;33.02;101457.94;7401343;19;20014;-68
2023/05/13 09:40:53;;;;;;;4.40;3.15;;;;;;;19.36;33.20;101460.13;7400771;19;20014;-66
2023/05/13 09:43:23;;;;;;;4.70;2.70;;;;;;;19.47;33.20;101465.81;7400383;19;20018;-67
2023/05/13 09:45:55;;;;;;;5.93;3.28;;;;;;;19.56;33.12;101456.53;7399875;19;20018;-67
2023/05/13 09:48:24;;;;;;;6.13;3.45;;;;;;;19.65;32.80;101455.22;7401115;19;20019;-68
2023/05/13 09:50:56;;;;;;;6.32;3.17;;;;;;;19.72;32.44;101461.97;7400686;19;20037;-69
2023/05/13 09:53:25;;;;;;;5.05;3.50;;;;;;;19.78;32.19;101451.03;7400208;19;20018;-67
2023/05/13 09:55:55;;;;;;;7.18;3.08;;;;;;;19.88;31.98;101456.81;7402409;19;20498;-66
2023/05/13 09:58:26;;;;;;;5.60;3.90;;;;;;;19.96;32.15;101445.75;7400518;19;20070;-66
2023/05/13 10:00:55;;;;;;;5.47;3.25;;;;;;;20.04;32.30;101440.91;7398649;19;20006;-68
2023/05/13 10:03:24;;;;;;;3.70;2.85;;;;;;;20.09;32.26;101440.69;7398906;19;20406;-70
2023/05/13 10:05:56;;;;;;;6.32;3.60;;;;;;;20.15;31.86;101451.88;7400314;19;20379;-66
2023/05/13 10:08:25;;;;;;;6.82;3.58;;;;;;;20.24;31.47;101449.69;7399471;19;20023;-68
2023/05/13 10:10:57;;;;;;;4.05;3.20;;;;;;;20.25;31.50;101433.63;7403230;19;20026;-66
2023/05/13 10:13:26;;;;;;;5.53;3.20;;;;;;;20.31;31.17;101425.31;7401833;19;20022;-66
2023/05/13 10:15:56;;;;;;;7.22;4.18;;;;;;;20.48;30.98;101443.06;7405625;19;20035;-65
2023/05/13 10:18:27;;;;;;;6.18;3.72;;;;;;;20.55;30.82;101435.63;7403558;19;20109;-65
2023/05/13 10:20:59;;;;;;;4.05;3.15;;;;;;;20.66;30.56;101437.72;7404043;19;20028;-68
2023/05/13 10:23:30;;;;;;;4.00;2.55;;;;;;;20.73;30.64;101441.81;7401245;19;20031;-67
2023/05/13 10:26:01;;;;;;;5.05;3.47;;;;;;;20.80;30.60;101439.66;7399858;19;20018;-66
2023/05/13 10:28:30;;;;;;;4.70;3.03;;;;;;;20.88;30.47;101436.59;7400025;19;20502;-64
2023/05/13 10:30:59;;;;;;;6.68;3.10;;;;;;;20.95;29.69;101444.19;7401222;19;20010;-67
2023/05/13 10:33:29;;;;;;;5.78;2.78;;;;;;;21.04;30.00;101437.50;7399495;19;20014;-69
2023/05/13 10:36:18;;;;;;;4.07;2.72;;;;;;;21.15;28.91;101434.22;7401528;19;20014;-67
2023/05/13 10:39:04;;;;;;;7.88;2.90;;;;;;;21.30;28.46;101430.69;7401541;19;20014;-66
2023/05/13 10:41:53;;;;;;;3.45;2.40;;;;;;;21.46;28.18;101427.19;7400187;19;20018;-69
2023/05/13 10:44:22;;;;;;;3.92;2.70;;;;;;;21.58;28.59;101430.97;7399368;19;20027;-65
2023/05/13 10:46:51;;;;;;;6.88;3.03;;;;;;;21.66;28.53;101430.53;7398012;19;20028;-65
2023/05/13 10:49:19;;;;;;;12.02;3.13;;;;;;;21.77;28.55;101430.78;7398846;19;20026;-64
2023/05/13 10:51:52;;;;;;;4.88;2.97;;;;;;;21.88;28.10;101431.00;7398088;19;20356;-64
2023/05/13 10:54:23;;;;;;;3.20;2.53;;;;;;;21.99;28.07;101425.03;7400417;19;20063;-65
2023/05/13 10:56:59;;;;;;;6.43;2.78;;;;;;;22.06;27.62;101423.69;7398504;19;20011;-65
2023/05/13 10:59:29;;;;;;;5.68;3.03;;;;;;;22.20;27.47;101424.69;7398656;19;20022;-64
2023/05/13 11:01:58;;;;;;;4.35;2.92;;;;;;;22.29;27.03;101425.00;7398192;19;20019;-64
2023/05/13 11:04:26;;;;;;;6.60;2.78;;;;;;;22.35;27.14;101428.25;7397862;19;20031;-65
2023/05/13 11:07:17;;;;;;;5.65;2.75;;;;;;;22.34;27.00;101431.88;7399567;19;20014;-64
2023/05/13 11:09:52;;;;;;;3.08;2.67;;;;;;;22.33;26.98;101430.16;7398549;19;20494;-65
2023/05/13 11:12:20;;;;;;;6.03;2.92;;;;;;;22.34;27.30;101427.38;7400827;19;20078;-66
2023/05/13 11:14:49;;;;;;;5.68;2.85;;;;;;;22.36;27.21;101436.19;7397934;19;20059;-64
2023/05/13 11:17:20;;;;;;;4.28;2.78;;;;;;;22.36;27.06;101430.00;7397967;19;20011;-66
2023/05/13 11:19:52;;;;;;;4.68;2.75;;;;;;;22.43;26.76;101426.00;7398603;19;20358;-67
2023/05/13 11:22:26;;;;;;;5.13;2.50;;;;;;;22.53;26.52;101420.97;7397985;19;20011;-65
2023/05/13 11:25:09;;;;;;;4.97;2.55;;;;;;;22.65;26.05;101422.88;7398846;19;20033;-66
2023/05/13 11:27:41;;;;;;;5.03;2.60;;;;;;;22.80;26.21;101413.03;7399066;19;20014;-66
2023/05/13 11:30:22;;;;;;;5.22;2.53;;;;;;;22.98;25.84;101421.72;7399444;19;20020;-66
2023/05/13 11:32:55;;;;;;;4.25;2.75;;;;;;;23.14;24.95;101421.59;7399275;19;20014;-64
2023/05/13 11:35:25;;;;;;;4.78;2.75;;;;;;;23.29;25.75;101421.59;7396743;19;20015;-64